createdAt,value
2023-05-21T00:02:19.858Z,1.10
2023-05-21T00:04:47.508Z,1.67
2023-05-21T00:07:15.226Z,1.30
2023-05-21T00:09:41.873Z,1.27
2023-05-21T00:12:09.047Z,1.42
2023-05-21T00:14:35.754Z,1.10
2023-05-21T00:17:02.234Z,1.40
2023-05-21T00:19:28.817Z,1.30
2023-05-21T00:21:55.988Z,1.33
2023-05-21T00:24:22.517Z,1.45
2023-05-21T00:26:48.942Z,1.63
2023-05-21T00:29:15.680Z,1.42
2023-05-21T00:31:42.200Z,1.85
2023-05-21T00:34:08.681Z,1.73
2023-05-21T00:36:35.556Z,1.63
2023-05-21T00:39:02.564Z,1.80
2023-05-21T00:41:30.215Z,1.75
2023-05-21T00:43:57.234Z,1.50
2023-05-21T00:46:24.150Z,1.75
2023-05-21T00:48:52.007Z,1.85
2023-05-21T00:51:21.621Z,2.08
2023-05-21T00:53:52.544Z,1.60
2023-05-21T00:56:22.688Z,1.65
2023-05-21T00:58:51.852Z,1.55
2023-05-21T01:01:19.362Z,1.60
2023-05-21T01:03:48.702Z,1.45
2023-05-21T01:06:15.998Z,1.50
2023-05-21T01:08:42.557Z,3.30
2023-05-21T01:11:10.626Z,2.03
2023-05-21T01:13:39.934Z,1.63
2023-05-21T01:16:08.630Z,1.60
2023-05-21T01:18:43.133Z,1.77
2023-05-21T01:21:11.491Z,1.52
2023-05-21T01:23:38.163Z,1.90
2023-05-21T01:26:04.643Z,1.83
2023-05-21T01:28:32.952Z,1.80
2023-05-21T01:31:12.224Z,1.70
2023-05-21T01:33:49.072Z,2.13
2023-05-21T01:36:24.086Z,1.80
2023-05-21T01:39:02.100Z,1.80
2023-05-21T01:41:33.402Z,1.80
2023-05-21T01:44:01.117Z,1.85
2023-05-21T01:46:30.730Z,1.60
2023-05-21T01:48:57.646Z,2.17
2023-05-21T01:51:24.697Z,1.85
2023-05-21T01:53:51.384Z,1.70
2023-05-21T01:56:17.882Z,2.08
2023-05-21T01:58:44.448Z,1.95
2023-05-21T02:01:11.981Z,1.75
2023-05-21T02:03:38.730Z,1.85
2023-05-21T02:06:05.424Z,1.63
2023-05-21T02:08:31.898Z,1.80
2023-05-21T02:10:58.336Z,1.88
2023-05-21T02:13:26.239Z,2.03
2023-05-21T02:15:54.800Z,1.75
2023-05-21T02:18:22.081Z,1.80
2023-05-21T02:20:48.562Z,2.17
2023-05-21T02:23:15.138Z,3.47
2023-05-21T02:25:41.580Z,1.67
2023-05-21T02:28:08.142Z,1.70
2023-05-21T02:30:35.214Z,1.90
2023-05-21T02:33:02.947Z,2.45
2023-05-21T02:35:29.562Z,1.95
2023-05-21T02:37:59.095Z,2.20
2023-05-21T02:40:25.588Z,2.23
2023-05-21T02:42:52.046Z,1.90
2023-05-21T02:45:18.547Z,2.00
2023-05-21T02:47:45.083Z,2.33
2023-05-21T02:50:13.564Z,2.20
2023-05-21T02:52:40.085Z,2.40
2023-05-21T02:55:07.102Z,2.28
2023-05-21T02:57:33.668Z,2.30
2023-05-21T03:00:00.090Z,2.25
2023-05-21T03:02:26.609Z,2.45
2023-05-21T03:04:53.199Z,2.10
2023-05-21T03:07:19.772Z,2.97
2023-05-21T03:09:46.564Z,2.58
2023-05-21T03:12:13.123Z,2.30
2023-05-21T03:14:39.584Z,2.40
2023-05-21T03:17:06.433Z,2.15
2023-05-21T03:19:35.769Z,2.83
2023-05-21T03:22:03.677Z,2.72
2023-05-21T03:24:30.812Z,2.40
2023-05-21T03:26:57.556Z,3.00
2023-05-21T03:29:24.060Z,2.67
2023-05-21T03:31:52.883Z,2.97
2023-05-21T03:34:20.117Z,2.70
2023-05-21T03:36:47.890Z,2.83
2023-05-21T03:39:14.556Z,2.97
2023-05-21T03:41:41.217Z,2.42
2023-05-21T03:44:07.789Z,2.03
2023-05-21T03:46:34.400Z,2.60
2023-05-21T03:49:00.959Z,2.58
2023-05-21T03:51:27.707Z,4.03
2023-05-21T03:53:54.202Z,3.25
2023-05-21T03:56:21.562Z,2.80
2023-05-21T03:58:48.070Z,2.70
2023-05-21T04:01:14.597Z,2.85
2023-05-21T04:03:41.324Z,2.78
2023-05-21T04:06:10.109Z,3.50
2023-05-21T04:08:37.965Z,2.67
2023-05-21T04:11:04.620Z,2.83
2023-05-21T04:13:31.058Z,3.22
2023-05-21T04:15:57.562Z,4.03
2023-05-21T04:18:25.890Z,3.08
2023-05-21T04:20:52.689Z,3.13
2023-05-21T04:23:19.153Z,2.72
2023-05-21T04:25:45.621Z,2.95
2023-05-21T04:28:12.065Z,3.42
2023-05-21T04:30:38.485Z,3.75
2023-05-21T04:33:05.025Z,3.90
2023-05-21T04:35:31.513Z,3.47
2023-05-21T04:37:57.962Z,3.88
2023-05-21T04:40:24.471Z,3.60
2023-05-21T04:42:51.436Z,4.50
2023-05-21T04:45:18.018Z,3.30
2023-05-21T04:47:44.531Z,3.45
2023-05-21T04:50:10.996Z,2.97
2023-05-21T04:52:40.219Z,3.92
2023-05-21T04:55:09.967Z,3.40
2023-05-21T04:57:36.986Z,4.32
2023-05-21T05:00:06.410Z,3.53
2023-05-21T05:02:32.897Z,3.63
2023-05-21T05:04:59.865Z,3.90
2023-05-21T05:07:26.680Z,3.72
2023-05-21T05:09:53.096Z,4.07
2023-05-21T05:12:19.605Z,4.75
2023-05-21T05:14:46.217Z,4.43
2023-05-21T05:17:15.447Z,4.30
2023-05-21T05:19:42.057Z,5.22
2023-05-21T05:22:08.501Z,3.83
2023-05-21T05:24:35.000Z,4.22
2023-05-21T05:27:01.526Z,4.20
2023-05-21T05:29:27.989Z,4.10
2023-05-21T05:31:54.396Z,4.05
2023-05-21T05:34:21.531Z,4.07
2023-05-21T05:36:48.037Z,4.50
2023-05-21T05:39:14.520Z,4.13
2023-05-21T05:41:41.070Z,3.85
2023-05-21T05:44:08.956Z,4.20
2023-05-21T05:46:37.353Z,3.72
2023-05-21T05:49:03.884Z,3.83
2023-05-21T05:51:30.650Z,3.55
2023-05-21T05:53:57.163Z,3.80
2023-05-21T05:56:23.731Z,4.07
2023-05-21T05:58:50.218Z,4.30
2023-05-21T06:01:17.857Z,4.28
2023-05-21T06:03:44.622Z,3.88
2023-05-21T06:06:11.945Z,4.10
2023-05-21T06:08:40.488Z,3.95
2023-05-21T06:11:07.080Z,4.18
2023-05-21T06:13:33.731Z,4.22
2023-05-21T06:16:00.194Z,3.65
2023-05-21T06:18:26.774Z,3.45
2023-05-21T06:20:53.215Z,3.53
2023-05-21T06:23:19.666Z,4.30
2023-05-21T06:25:46.130Z,3.67
2023-05-21T06:28:12.687Z,3.42
2023-05-21T06:30:39.150Z,3.80
2023-05-21T06:33:05.758Z,3.70
2023-05-21T06:35:34.762Z,3.58
2023-05-21T06:38:01.280Z,4.28
2023-05-21T06:40:27.996Z,3.65
2023-05-21T06:42:56.088Z,3.60
2023-05-21T06:45:23.258Z,3.58
2023-05-21T06:47:49.714Z,4.90
2023-05-21T06:50:16.572Z,4.07
2023-05-21T06:52:43.110Z,4.03
2023-05-21T06:55:09.685Z,3.53
2023-05-21T06:57:37.963Z,3.40
2023-05-21T07:00:05.670Z,3.90
2023-05-21T07:02:32.260Z,3.88
2023-05-21T07:04:58.934Z,3.92
2023-05-21T07:07:25.751Z,4.15
2023-05-21T07:09:52.208Z,3.92
2023-05-21T07:12:18.631Z,3.85
2023-05-21T07:14:45.052Z,4.32
2023-05-21T07:17:11.548Z,3.92
2023-05-21T07:19:38.244Z,4.10
2023-05-21T07:22:05.925Z,3.90
2023-05-21T07:24:32.342Z,3.70
2023-05-21T07:26:58.844Z,3.85
2023-05-21T07:29:25.280Z,3.85
2023-05-21T07:31:51.705Z,3.85
2023-05-21T07:34:18.123Z,4.13
2023-05-21T07:36:44.577Z,4.25
2023-05-21T07:39:11.487Z,4.28
2023-05-21T07:41:37.894Z,4.60
2023-05-21T07:44:04.564Z,4.00
2023-05-21T07:46:31.051Z,3.47
2023-05-21T07:48:57.515Z,4.47
2023-05-21T07:51:24.401Z,3.67
2023-05-21T07:53:51.140Z,4.82
2023-05-21T07:56:18.322Z,4.22
2023-05-21T07:58:45.761Z,3.80
2023-05-21T08:01:12.532Z,4.05
2023-05-21T08:03:39.270Z,3.72
2023-05-21T08:06:05.934Z,3.78
2023-05-21T08:08:32.643Z,3.95
2023-05-21T08:10:59.121Z,3.78
2023-05-21T08:13:25.873Z,4.10
2023-05-21T08:15:53.399Z,4.45
2023-05-21T08:18:20.228Z,4.22
2023-05-21T08:20:46.674Z,3.83
2023-05-21T08:23:13.136Z,3.60
2023-05-21T08:25:39.741Z,4.40
2023-05-21T08:28:07.150Z,4.10
2023-05-21T08:30:33.936Z,4.05
2023-05-21T08:33:01.156Z,4.35
2023-05-21T08:35:27.615Z,3.70
2023-05-21T08:37:54.053Z,4.07
2023-05-21T08:40:20.704Z,4.85
2023-05-21T08:42:49.109Z,4.10
2023-05-21T08:45:21.634Z,4.20
2023-05-21T08:47:52.033Z,4.32
2023-05-21T08:50:19.457Z,3.90
2023-05-21T08:52:45.976Z,3.90
2023-05-21T08:55:12.832Z,4.03
2023-05-21T08:57:43.690Z,4.05
2023-05-21T09:00:11.783Z,5.05
2023-05-21T09:02:43.672Z,3.97
2023-05-21T09:05:10.343Z,4.10
2023-05-21T09:07:46.525Z,4.53
2023-05-21T09:10:14.069Z,4.32
2023-05-21T09:12:40.551Z,4.13
2023-05-21T09:15:07.775Z,4.25
2023-05-21T09:17:34.462Z,5.13
2023-05-21T09:20:13.617Z,4.47
2023-05-21T09:22:42.565Z,4.53
2023-05-21T09:25:29.955Z,5.10
2023-05-21T09:27:56.986Z,4.85
2023-05-21T09:30:34.934Z,5.32
2023-05-21T09:33:03.406Z,4.47
2023-05-21T09:35:30.086Z,4.85
2023-05-21T09:37:57.649Z,4.40
2023-05-21T09:40:24.883Z,5.57
2023-05-21T09:42:53.146Z,5.13
2023-05-21T09:45:26.446Z,5.25
2023-05-21T09:47:54.936Z,4.45
2023-05-21T09:50:28.277Z,4.90
2023-05-21T09:52:55.559Z,4.60
2023-05-21T09:55:23.906Z,5.60
2023-05-21T09:57:51.054Z,4.53
2023-05-21T10:00:27.458Z,4.78
2023-05-21T10:02:56.065Z,4.35
2023-05-21T10:05:27.435Z,4.57
2023-05-21T10:07:59.993Z,4.70
2023-05-21T10:10:28.585Z,4.80
2023-05-21T10:13:04.148Z,4.53
2023-05-21T10:15:35.048Z,4.85
2023-05-21T10:18:02.426Z,5.03
2023-05-21T10:20:29.411Z,4.90
2023-05-21T10:22:56.801Z,5.03
2023-05-21T10:25:24.402Z,5.10
2023-05-21T10:27:51.729Z,4.75
2023-05-21T10:30:18.404Z,5.03
2023-05-21T10:32:47.736Z,5.00
2023-05-21T10:35:16.286Z,5.70
2023-05-21T10:37:46.335Z,5.50
2023-05-21T10:40:13.595Z,5.20
2023-05-21T10:43:13.383Z,5.95
2023-05-21T10:45:55.051Z,5.13
2023-05-21T10:48:58.480Z,5.07
2023-05-21T10:51:36.453Z,5.13
2023-05-21T10:54:21.062Z,4.90
2023-05-21T10:56:50.428Z,5.18
2023-05-21T10:59:25.790Z,5.00
2023-05-21T11:01:53.210Z,5.75
2023-05-21T11:04:23.830Z,4.78
2023-05-21T11:06:50.247Z,5.30
2023-05-21T11:09:17.236Z,5.63
2023-05-21T11:11:51.210Z,5.20
2023-05-21T11:14:38.949Z,5.57
2023-05-21T11:17:08.174Z,5.13
2023-05-21T11:19:38.470Z,5.10
2023-05-21T11:22:07.191Z,5.38
2023-05-21T11:24:37.355Z,5.95
2023-05-21T11:27:05.650Z,5.55
2023-05-21T11:29:44.264Z,5.40
2023-05-21T11:32:12.566Z,5.80
2023-05-21T11:34:46.398Z,5.05
2023-05-21T11:37:20.627Z,5.50
2023-05-21T11:39:48.179Z,5.57
2023-05-21T11:42:39.500Z,5.70
2023-05-21T11:45:06.399Z,5.95
2023-05-21T11:47:33.029Z,5.25
2023-05-21T11:50:01.205Z,6.18
2023-05-21T11:52:31.696Z,5.75
2023-05-21T11:54:59.697Z,5.82
2023-05-21T11:57:31.137Z,5.97
2023-05-21T11:59:59.096Z,5.32
2023-05-21T12:02:33.197Z,5.72
2023-05-21T12:05:00.473Z,5.75
2023-05-21T12:07:30.244Z,5.50
2023-05-21T12:09:57.751Z,5.18
2023-05-21T12:12:26.328Z,5.63
2023-05-21T12:14:54.884Z,6.43
2023-05-21T12:17:23.097Z,5.45
2023-05-21T12:19:56.518Z,5.80
2023-05-21T12:22:24.468Z,5.85
2023-05-21T12:24:51.536Z,5.90
2023-05-21T12:27:18.328Z,6.07
2023-05-21T12:29:46.176Z,5.82
2023-05-21T12:32:14.555Z,5.40
2023-05-21T12:34:46.958Z,5.60
2023-05-21T12:37:27.457Z,6.05
2023-05-21T12:39:55.786Z,6.40
2023-05-21T12:42:35.793Z,6.45
2023-05-21T12:45:07.322Z,5.88
2023-05-21T12:47:34.194Z,6.57
2023-05-21T12:50:02.083Z,6.13
2023-05-21T12:52:29.375Z,5.50
2023-05-21T12:54:57.087Z,6.35
2023-05-21T12:57:34.661Z,6.60
2023-05-21T13:00:01.872Z,6.68
2023-05-21T13:02:38.399Z,6.80
2023-05-21T13:05:09.808Z,6.65
2023-05-21T13:07:38.449Z,6.75
2023-05-21T13:10:07.087Z,5.93
2023-05-21T13:12:34.116Z,7.25
2023-05-21T13:15:02.005Z,7.20
2023-05-21T13:17:29.090Z,6.43
2023-05-21T13:20:07.296Z,6.63
2023-05-21T13:22:33.742Z,5.93
2023-05-21T13:25:00.188Z,6.72
2023-05-21T13:27:26.607Z,6.53
2023-05-21T13:29:53.068Z,6.13
2023-05-21T13:32:19.569Z,6.43
2023-05-21T13:34:46.343Z,6.22
2023-05-21T13:37:12.753Z,7.35
2023-05-21T13:39:39.313Z,9.45
2023-05-21T13:42:06.173Z,7.22
2023-05-21T13:44:36.063Z,6.63
2023-05-21T13:47:03.815Z,7.13
2023-05-21T13:49:30.434Z,7.88
2023-05-21T13:51:58.075Z,7.28
2023-05-21T13:54:24.623Z,7.40
2023-05-21T13:56:51.090Z,7.82
2023-05-21T13:59:17.560Z,7.43
2023-05-21T14:01:47.958Z,7.95
2023-05-21T14:04:14.403Z,7.78
2023-05-21T14:06:41.168Z,8.07
2023-05-21T14:09:07.999Z,7.38
2023-05-21T14:11:35.064Z,7.63
2023-05-21T14:14:02.880Z,7.03
2023-05-21T14:16:29.465Z,9.88
2023-05-21T14:18:57.162Z,7.80
2023-05-21T14:21:25.038Z,7.43
2023-05-21T14:23:52.193Z,6.75
2023-05-21T14:26:19.120Z,7.70
2023-05-21T14:28:46.249Z,8.85
2023-05-21T14:31:12.824Z,8.18
2023-05-21T14:33:39.315Z,9.38
2023-05-21T14:36:06.014Z,8.38
2023-05-21T14:38:32.552Z,8.07
2023-05-21T14:40:59.014Z,7.85
2023-05-21T14:43:25.523Z,7.82
2023-05-21T14:45:52.176Z,7.70
2023-05-21T14:48:22.646Z,8.23
2023-05-21T14:50:50.196Z,8.23
2023-05-21T14:53:17.160Z,7.65
2023-05-21T14:55:43.645Z,8.30
2023-05-21T14:58:10.258Z,7.60
2023-05-21T15:00:37.783Z,7.63
2023-05-21T15:03:05.188Z,7.55
2023-05-21T15:05:32.100Z,7.57
2023-05-21T15:07:58.549Z,7.25
2023-05-21T15:10:28.332Z,7.97
2023-05-21T15:15:21.700Z,8.30
2023-05-21T15:17:49.292Z,8.23
2023-05-21T15:20:16.556Z,8.45
2023-05-21T15:22:43.118Z,7.75
2023-05-21T15:25:11.135Z,8.57
2023-05-21T15:27:37.573Z,8.13
2023-05-21T15:30:04.654Z,8.65
2023-05-21T15:32:31.593Z,9.00
2023-05-21T15:35:00.686Z,8.60
2023-05-21T15:37:27.566Z,8.18
2023-05-21T15:39:54.036Z,8.73
2023-05-21T15:42:20.465Z,9.00
2023-05-21T15:44:47.261Z,9.45
2023-05-21T15:47:13.706Z,9.00
2023-05-21T15:49:40.214Z,9.75
2023-05-21T15:52:06.974Z,9.52
2023-05-21T15:54:33.405Z,9.40
2023-05-21T15:56:59.833Z,10.00
2023-05-21T15:59:27.404Z,8.77
2023-05-21T16:01:55.612Z,8.07
2023-05-21T16:04:22.172Z,9.00
2023-05-21T16:06:48.712Z,8.55
2023-05-21T16:09:15.446Z,9.13
2023-05-21T16:11:44.639Z,9.80
2023-05-21T16:14:11.873Z,9.50
2023-05-21T16:16:38.887Z,9.60
2023-05-21T16:19:05.725Z,9.50
2023-05-21T16:21:32.935Z,11.00
2023-05-21T16:23:59.873Z,10.95
2023-05-21T16:26:26.320Z,9.02
2023-05-21T16:28:53.645Z,9.07
2023-05-21T16:31:20.436Z,9.05
2023-05-21T16:33:46.892Z,8.77
2023-05-21T16:36:13.359Z,8.52
2023-05-21T16:38:39.832Z,8.15
2023-05-21T16:41:07.025Z,8.23
2023-05-21T16:43:33.496Z,8.23
2023-05-21T16:45:59.980Z,8.68
2023-05-21T16:48:26.541Z,8.32
2023-05-21T16:50:53.015Z,9.38
2023-05-21T16:53:19.501Z,8.45
2023-05-21T16:55:45.929Z,7.82
2023-05-21T16:58:13.557Z,9.18
2023-05-21T17:00:39.997Z,9.48
2023-05-21T17:03:06.736Z,9.30
2023-05-21T17:05:33.371Z,9.13
2023-05-21T17:07:59.836Z,9.23
2023-05-21T17:10:26.336Z,9.40
2023-05-21T17:12:52.802Z,9.25
2023-05-21T17:15:19.230Z,11.10
2023-05-21T17:17:45.751Z,10.43
2023-05-21T17:20:12.727Z,9.63
2023-05-21T17:22:39.276Z,9.40
2023-05-21T17:25:06.434Z,9.48
2023-05-21T17:27:32.936Z,9.10
2023-05-21T17:29:59.482Z,9.82
2023-05-21T17:32:25.939Z,9.25
2023-05-21T17:34:53.040Z,9.32
2023-05-21T17:37:19.538Z,9.27
2023-05-21T17:39:45.969Z,9.18
2023-05-21T17:42:12.401Z,8.98
2023-05-21T17:44:38.827Z,8.13
2023-05-21T17:47:06.629Z,8.32
2023-05-21T17:49:33.233Z,8.35
2023-05-21T17:52:00.634Z,8.35
2023-05-21T17:54:27.428Z,9.45
2023-05-21T17:56:53.908Z,9.63
2023-05-21T17:59:21.365Z,8.80
2023-05-21T18:01:47.879Z,9.07
2023-05-21T18:04:14.403Z,8.65
2023-05-21T18:06:40.943Z,8.35
2023-05-21T18:09:07.912Z,8.82
2023-05-21T18:11:34.722Z,9.27
2023-05-21T18:14:01.379Z,9.00
2023-05-21T18:16:30.188Z,8.93
2023-05-21T18:18:57.220Z,8.32
2023-05-21T18:21:23.793Z,8.70
2023-05-21T18:23:50.216Z,8.68
2023-05-21T18:26:16.660Z,8.25
2023-05-21T18:28:43.156Z,9.13
2023-05-21T18:31:09.582Z,8.55
2023-05-21T18:33:36.271Z,9.00
2023-05-21T18:36:02.722Z,9.00
2023-05-21T18:38:29.147Z,8.55
2023-05-21T18:40:55.573Z,8.60
2023-05-21T18:43:22.085Z,8.25
2023-05-21T18:45:48.551Z,8.77
2023-05-21T18:48:15.014Z,9.50
2023-05-21T18:50:41.532Z,8.93
2023-05-21T18:53:08.000Z,8.48
2023-05-21T18:55:34.612Z,9.13
2023-05-21T18:58:01.208Z,8.48
2023-05-21T19:00:27.830Z,9.95
2023-05-21T19:02:55.441Z,8.27
2023-05-21T19:05:22.212Z,9.05
2023-05-21T19:07:49.585Z,8.52
2023-05-21T19:10:16.053Z,8.63
2023-05-21T19:12:43.432Z,8.52
2023-05-21T19:15:10.514Z,8.75
2023-05-21T19:17:39.009Z,8.57
2023-05-21T19:20:10.035Z,8.82
2023-05-21T19:22:37.214Z,8.38
2023-05-21T19:25:04.154Z,8.48
2023-05-21T19:27:30.617Z,9.18
2023-05-21T19:29:57.159Z,8.63
2023-05-21T19:32:23.751Z,8.30
2023-05-21T19:34:51.505Z,8.70
2023-05-21T19:37:18.120Z,8.05
2023-05-21T19:39:49.398Z,8.80
2023-05-21T19:42:17.330Z,8.82
2023-05-21T19:44:43.908Z,8.85
2023-05-21T19:47:10.618Z,9.45
2023-05-21T19:49:37.111Z,8.73
2023-05-21T19:52:04.534Z,9.52
2023-05-21T19:54:31.153Z,9.13
2023-05-21T19:56:57.744Z,8.93
2023-05-21T19:59:24.728Z,8.75
2023-05-21T20:01:51.758Z,8.82
2023-05-21T20:04:18.391Z,9.05
2023-05-21T20:06:44.945Z,8.80
2023-05-21T20:09:13.216Z,8.98
2023-05-21T20:11:42.130Z,9.25
2023-05-21T20:14:08.811Z,8.52
2023-05-21T20:16:35.380Z,9.25
2023-05-21T20:19:02.209Z,8.90
2023-05-21T20:21:30.186Z,8.50
2023-05-21T20:23:56.684Z,8.20
2023-05-21T20:26:23.171Z,7.97
2023-05-21T20:28:49.638Z,9.18
2023-05-21T20:31:16.201Z,8.98
2023-05-21T20:33:43.033Z,8.43
2023-05-21T20:36:09.565Z,9.27
2023-05-21T20:38:37.972Z,8.25
2023-05-21T20:41:04.886Z,8.95
2023-05-21T20:43:31.334Z,8.43
2023-05-21T20:46:01.600Z,8.63
2023-05-21T20:48:29.309Z,8.50
2023-05-21T20:50:57.456Z,9.27
2023-05-21T20:53:24.747Z,9.02
2023-05-21T20:55:52.662Z,8.93
2023-05-21T20:58:19.110Z,8.57
2023-05-21T21:00:48.349Z,9.13
2023-05-21T21:03:17.874Z,8.55
2023-05-21T21:05:44.812Z,8.35
2023-05-21T21:08:12.331Z,8.18
2023-05-21T21:10:41.243Z,8.93
2023-05-21T21:13:08.440Z,8.13
2023-05-21T21:15:36.930Z,8.70
2023-05-21T21:18:03.736Z,8.57
2023-05-21T21:20:30.354Z,8.32
2023-05-21T21:22:56.829Z,8.93
2023-05-21T21:25:23.322Z,8.70
2023-05-21T21:27:49.807Z,8.30
2023-05-21T21:30:16.329Z,8.30
2023-05-21T21:32:42.901Z,9.30
2023-05-21T21:35:12.866Z,8.35
2023-05-21T21:37:39.283Z,8.60
2023-05-21T21:40:06.508Z,8.38
2023-05-21T21:42:33.171Z,9.75
2023-05-21T21:44:59.592Z,8.80
2023-05-21T21:47:26.190Z,8.38
2023-05-21T21:49:52.655Z,8.63
2023-05-21T21:52:19.138Z,8.38
2023-05-21T21:54:45.688Z,8.88
2023-05-21T21:57:12.100Z,9.75
2023-05-21T21:59:39.085Z,8.70
2023-05-21T22:02:05.974Z,9.20
2023-05-21T22:04:32.533Z,8.85
2023-05-21T22:06:58.965Z,9.02
2023-05-21T22:09:25.437Z,8.77
2023-05-21T22:11:51.956Z,8.60
2023-05-21T22:14:19.362Z,8.27
2023-05-21T22:16:47.389Z,8.50
2023-05-21T22:19:15.604Z,8.95
2023-05-21T22:21:42.169Z,8.40
2023-05-21T22:24:14.977Z,9.27
2023-05-21T22:26:50.950Z,8.88
2023-05-21T22:29:17.371Z,8.88
2023-05-21T22:31:43.876Z,9.25
2023-05-21T22:34:10.369Z,8.48
2023-05-21T22:36:38.680Z,9.07
2023-05-21T22:39:05.628Z,9.07
2023-05-21T22:41:32.170Z,9.43
2023-05-21T22:43:58.620Z,8.75
2023-05-21T22:46:25.059Z,8.55
2023-05-21T22:48:51.632Z,9.02
2023-05-21T22:51:18.113Z,9.38
2023-05-21T22:53:45.561Z,8.77
2023-05-21T22:56:11.992Z,9.18
2023-05-21T22:58:38.493Z,9.52
2023-05-21T23:01:05.015Z,8.63
2023-05-21T23:03:31.439Z,8.82
2023-05-21T23:05:57.870Z,9.32
2023-05-21T23:08:24.329Z,10.10
2023-05-21T23:10:50.815Z,10.73
2023-05-21T23:13:17.262Z,11.05
2023-05-21T23:15:44.140Z,10.50
2023-05-21T23:18:11.328Z,10.13
2023-05-21T23:20:40.781Z,11.02
2023-05-21T23:23:07.787Z,11.18
2023-05-21T23:25:34.794Z,10.77
2023-05-21T23:28:01.965Z,10.30
2023-05-21T23:30:28.536Z,10.32
2023-05-21T23:32:55.004Z,11.00
2023-05-21T23:35:21.473Z,11.15
2023-05-21T23:37:48.072Z,10.38
2023-05-21T23:40:14.694Z,10.00
2023-05-21T23:42:41.264Z,10.15
2023-05-21T23:45:07.947Z,10.10
2023-05-21T23:47:34.353Z,10.38
2023-05-21T23:50:00.776Z,10.02
2023-05-21T23:52:27.248Z,9.85
2023-05-21T23:54:54.123Z,10.20
2023-05-21T23:57:20.557Z,10.43
2023-05-21T23:59:47.036Z,10.90
